Time;durP1;ratioP1;P1;durP2;ratioP2;P2;SDS_P1;SDS_P2;PMS_P1;PMS_P2;Temp;Humidity;BMP_temperature;BMP_pressure;BME280_temperature;BME280_humidity;BME280_pressure;Samples;Min_cycle;Max_cycle;Signal;HPM_P1;HPM_P2
2022/12/11 00:02:08;;;;;;;;;;;-0.80;99.90;;;;;;5098883;27;19924;-74
2022/12/11 00:04:34;;;;;;;;;;;-1.00;99.90;;;;;;5099150;27;19935;-74
2022/12/11 00:07:00;;;;;;;;;;;0.90;99.90;;;;;;5103887;27;20415;-74
2022/12/11 00:09:25;;;;;;;;;;;-1.00;99.90;;;;;;5102182;27;19932;-74
2022/12/11 00:11:54;;;;;;;;;;;-1.00;99.90;;;;;;5101428;28;19974;-74
2022/12/11 00:14:20;;;;;;;;;;;0.80;99.90;;;;;;5089182;27;20513;-75
2022/12/11 00:16:46;;;;;;;;;;;-1.20;99.90;;;;;;5094019;27;19924;-73
2022/12/11 00:19:12;;;;;;;;;;;-0.90;99.90;;;;;;5097180;28;19931;-74
2022/12/11 00:21:38;;;;;;;;;;;-0.40;99.90;;;;;;5076348;28;19932;-74
2022/12/11 00:24:03;;;;;;;;;;;-1.00;99.90;;;;;;5090587;28;19924;-74
2022/12/11 00:26:29;;;;;;;;;;;-0.90;99.90;;;;;;5074723;28;20036;-74
2022/12/11 00:28:55;;;;;;;;;;;-0.90;99.90;;;;;;5098245;28;19924;-73
2022/12/11 00:31:21;;;;;;;;;;;-0.90;99.90;;;;;;5097223;28;19928;-76
2022/12/11 00:33:49;;;;;;;;;;;-1.00;99.90;;;;;;5098737;28;19959;-74
2022/12/11 00:36:17;;;;;;;;;;;-1.00;99.90;;;;;;5106345;28;19931;-74
2022/12/11 00:38:43;;;;;;;;;;;-0.90;99.90;;;;;;5085207;28;19924;-74
2022/12/11 00:41:09;;;;;;;;;;;-0.70;99.90;;;;;;5100879;28;19928;-73
2022/12/11 00:43:34;;;;;;;;;;;-0.80;99.90;;;;;;5095158;28;19924;-73
2022/12/11 00:46:00;;;;;;;;;;;-1.20;99.90;;;;;;5108472;28;20038;-72
2022/12/11 00:48:26;;;;;;;;;;;-0.80;99.90;;;;;;5102563;28;20291;-73
2022/12/11 00:50:51;;;;;;;;;;;-0.80;99.90;;;;;;5095690;28;19924;-74
2022/12/11 00:53:17;;;;;;;;;;;-0.90;99.90;;;;;;5108251;28;19919;-75
2022/12/11 00:55:43;;;;;;;;;;;0.40;99.90;;;;;;5113785;28;19931;-76
2022/12/11 00:58:09;;;;;;;;;;;0.60;99.90;;;;;;5082503;27;19925;-73
2022/12/11 01:00:35;;;;;;;;;;;-0.70;99.90;;;;;;5089450;28;19928;-73
2022/12/11 01:03:00;;;;;;;;;;;0.00;99.90;;;;;;5100868;27;19931;-73
2022/12/11 01:05:26;;;;;;;;;;;-0.90;99.90;;;;;;5084027;28;20395;-74
2022/12/11 01:07:52;;;;;;;;;;;-0.90;99.90;;;;;;5089097;28;19971;-73
2022/12/11 01:10:23;;;;;;;;;;;-0.70;99.90;;;;;;5096184;27;20023;-74
2022/12/11 01:12:56;;;;;;;;;;;-0.10;99.90;;;;;;5112454;27;19920;-74
2022/12/11 01:15:22;;;;;;;;;;;-0.70;99.90;;;;;;5082657;28;20015;-75
2022/12/11 01:17:49;;;;;;;;;;;-0.70;99.90;;;;;;5082527;28;19920;-76
2022/12/11 01:20:15;;;;;;;;;;;-0.70;99.90;;;;;;5105220;27;19930;-74
2022/12/11 01:22:40;;;;;;;;;;;0.80;99.90;;;;;;5112852;27;19924;-75
2022/12/11 01:25:06;;;;;;;;;;;0.70;99.90;;;;;;5110894;27;19953;-74
2022/12/11 01:27:32;;;;;;;;;;;-0.70;99.90;;;;;;5081333;28;19928;-76
2022/12/11 01:29:58;;;;;;;;;;;-0.70;99.90;;;;;;5099079;28;19977;-74
2022/12/11 01:32:23;;;;;;;;;;;-0.80;99.90;;;;;;5110987;27;20382;-75
2022/12/11 01:34:49;;;;;;;;;;;-0.90;99.90;;;;;;5109381;27;20279;-75
2022/12/11 01:37:14;;;;;;;;;;;-0.70;99.90;;;;;;5104263;27;19976;-74
2022/12/11 01:39:40;;;;;;;;;;;-1.00;99.90;;;;;;5109227;28;19978;-74
2022/12/11 01:42:09;;;;;;;;;;;-0.70;99.90;;;;;;5114977;27;19930;-75
2022/12/11 01:44:34;;;;;;;;;;;-0.60;99.90;;;;;;5113148;27;19923;-75
2022/12/11 01:47:00;;;;;;;;;;;-0.80;99.90;;;;;;5100778;28;20523;-74
2022/12/11 01:49:27;;;;;;;;;;;0.80;99.90;;;;;;5100252;28;20006;-74
2022/12/11 01:52:04;;;;;;;;;;;-0.70;99.90;;;;;;5099712;28;19990;-75
2022/12/11 01:54:30;;;;;;;;;;;-0.50;99.90;;;;;;5112471;27;19943;-76
2022/12/11 01:56:59;;;;;;;;;;;1.10;99.90;;;;;;5122170;27;20381;-76
2022/12/11 01:59:26;;;;;;;;;;;-0.60;99.90;;;;;;5114317;27;20041;-75
2022/12/11 02:02:00;;;;;;;;;;;1.30;99.90;;;;;;5110665;27;19924;-76
2022/12/11 02:04:26;;;;;;;;;;;-0.50;99.90;;;;;;5097204;27;19945;-74
2022/12/11 02:06:52;;;;;;;;;;;0.50;99.90;;;;;;5080014;28;19931;-74
2022/12/11 02:09:20;;;;;;;;;;;-0.50;99.90;;;;;;5080621;27;19931;-74
2022/12/11 02:12:01;;;;;;;;;;;1.70;99.90;;;;;;5130574;27;19943;-74
2022/12/11 02:14:39;;;;;;;;;;;-0.50;99.90;;;;;;5114736;27;19931;-75
2022/12/11 02:17:13;;;;;;;;;;;-0.50;99.90;;;;;;5113946;27;20395;-75
2022/12/11 02:19:42;;;;;;;;;;;-0.50;99.90;;;;;;5094155;27;19964;-74
2022/12/11 02:22:10;;;;;;;;;;;-0.50;99.90;;;;;;5103515;27;20716;-73
2022/12/11 02:25:01;;;;;;;;;;;1.90;99.90;;;;;;5106548;28;19982;-74
2022/12/11 02:27:36;;;;;;;;;;;-0.40;99.90;;;;;;5104247;27;19928;-73
2022/12/11 02:30:06;;;;;;;;;;;-0.40;99.90;;;;;;5108064;27;20363;-74
2022/12/11 02:32:42;;;;;;;;;;;-1.60;99.90;;;;;;5099930;27;19930;-74
2022/12/11 02:35:20;;;;;;;;;;;-0.40;99.90;;;;;;5098875;28;19931;-75
2022/12/11 02:37:46;;;;;;;;;;;-0.40;99.90;;;;;;5102334;27;20422;-75
2022/12/11 02:40:13;;;;;;;;;;;-0.40;99.90;;;;;;5100277;27;19967;-74
2022/12/11 02:42:41;;;;;;;;;;;-0.30;99.90;;;;;;5096340;27;19924;-74
2022/12/11 02:45:08;;;;;;;;;;;-0.10;99.90;;;;;;5087304;28;20386;-74
2022/12/11 02:47:34;;;;;;;;;;;-0.30;99.90;;;;;;5102898;27;19928;-75
2022/12/11 02:50:01;;;;;;;;;;;-0.40;99.90;;;;;;5104425;28;19981;-74
2022/12/11 02:52:28;;;;;;;;;;;1.40;99.90;;;;;;5103983;27;20010;-75
2022/12/11 02:54:55;;;;;;;;;;;-0.30;99.90;;;;;;5095214;28;19935;-75
2022/12/11 02:57:27;;;;;;;;;;;-0.50;99.90;;;;;;5101927;27;20374;-77
2022/12/11 02:59:53;;;;;;;;;;;-0.30;99.90;;;;;;5086477;28;20018;-76
2022/12/11 03:02:18;;;;;;;;;;;0.40;99.90;;;;;;5083335;27;20019;-76
2022/12/11 03:04:46;;;;;;;;;;;1.50;99.90;;;;;;5099333;27;19967;-76
2022/12/11 03:07:18;;;;;;;;;;;2.00;99.90;;;;;;5102753;28;19924;-77
2022/12/11 03:09:45;;;;;;;;;;;-0.30;99.90;;;;;;5096804;28;19924;-75
2022/12/11 03:12:15;;;;;;;;;;;1.70;99.90;;;;;;5087042;28;19939;-75
2022/12/11 03:14:45;;;;;;;;;;;-0.30;99.90;;;;;;5111734;27;19947;-74
2022/12/11 03:17:16;;;;;;;;;;;2.00;99.90;;;;;;5108909;27;19974;-74
2022/12/11 03:19:49;;;;;;;;;;;-0.20;99.90;;;;;;5115792;27;19931;-74
2022/12/11 03:22:17;;;;;;;;;;;-0.30;99.90;;;;;;5123045;27;19924;-74
2022/12/11 03:24:46;;;;;;;;;;;1.90;99.90;;;;;;5129322;27;19924;-74
2022/12/11 03:27:26;;;;;;;;;;;-0.30;99.90;;;;;;5097604;27;19931;-74
2022/12/11 03:29:56;;;;;;;;;;;-0.30;99.90;;;;;;5127785;27;19923;-74
2022/12/11 03:32:24;;;;;;;;;;;-0.20;99.90;;;;;;5106146;27;20010;-73
2022/12/11 03:34:52;;;;;;;;;;;1.80;99.90;;;;;;5089776;28;19963;-73
2022/12/11 03:37:19;;;;;;;;;;;2.20;99.90;;;;;;5082915;27;19924;-74
2022/12/11 03:39:47;;;;;;;;;;;-0.20;99.90;;;;;;5112117;27;19923;-74
2022/12/11 03:42:14;;;;;;;;;;;-0.30;99.90;;;;;;5104153;28;19969;-75
2022/12/11 03:44:44;;;;;;;;;;;0.20;99.90;;;;;;5093431;27;19934;-74
2022/12/11 03:47:10;;;;;;;;;;;-0.50;99.90;;;;;;5099073;27;19928;-73
2022/12/11 03:49:38;;;;;;;;;;;-0.20;99.90;;;;;;5094486;27;19930;-74
2022/12/11 03:52:05;;;;;;;;;;;1.30;99.90;;;;;;5126439;27;20026;-72
2022/12/11 03:54:31;;;;;;;;;;;-0.40;99.90;;;;;;5091443;27;19976;-74
2022/12/11 03:56:59;;;;;;;;;;;1.90;99.90;;;;;;5098069;28;19928;-74
2022/12/11 03:59:24;;;;;;;;;;;-0.20;99.90;;;;;;5096792;28;20441;-74
2022/12/11 04:01:50;;;;;;;;;;;-1.30;99.90;;;;;;5104253;28;19927;-73
2022/12/11 04:04:15;;;;;;;;;;;1.50;99.90;;;;;;5079113;28;20275;-73
2022/12/11 04:06:41;;;;;;;;;;;-1.70;99.90;;;;;;5103570;28;19930;-74
2022/12/11 04:09:07;;;;;;;;;;;-0.10;99.90;;;;;;5101709;28;20062;-73
2022/12/11 04:11:35;;;;;;;;;;;-0.20;99.90;;;;;;5103742;27;20039;-73
2022/12/11 04:16:47;;;;;;;;;;;-0.30;99.90;;;;;;5098877;28;19932;-74
2022/12/11 04:24:41;;;;;;;;;;;-0.10;99.90;;;;;;5101865;27;20428;-74
2022/12/11 04:27:06;;;;;;;;;;;-0.50;99.90;;;;;;5076402;28;20007;-74
2022/12/11 04:29:32;;;;;;;;;;;-0.10;99.90;;;;;;5103697;28;19924;-73
2022/12/11 04:31:58;;;;;;;;;;;-0.10;99.90;;;;;;5082824;28;20359;-74
2022/12/11 04:34:23;;;;;;;;;;;-1.30;99.90;;;;;;5101491;27;19924;-74
2022/12/11 04:36:49;;;;;;;;;;;-0.10;99.90;;;;;;5106786;27;19927;-74
2022/12/11 04:39:15;;;;;;;;;;;-0.10;99.90;;;;;;5103251;27;19928;-74
2022/12/11 04:41:40;;;;;;;;;;;-0.10;99.90;;;;;;5111594;27;19928;-74
2022/12/11 04:44:06;;;;;;;;;;;0.00;99.90;;;;;;5106859;27;20376;-74
2022/12/11 04:46:32;;;;;;;;;;;0.00;99.90;;;;;;5090256;27;20371;-74
2022/12/11 04:48:59;;;;;;;;;;;0.00;99.90;;;;;;5102896;27;20391;-74
2022/12/11 04:51:25;;;;;;;;;;;-0.50;99.90;;;;;;5116091;27;19968;-74
2022/12/11 04:53:50;;;;;;;;;;;0.70;99.90;;;;;;5087697;28;19981;-75
2022/12/11 04:56:16;;;;;;;;;;;-0.10;99.90;;;;;;5084797;27;19936;-73
2022/12/11 04:58:42;;;;;;;;;;;-0.10;99.90;;;;;;5105076;27;19923;-74
2022/12/11 05:01:08;;;;;;;;;;;0.00;99.90;;;;;;5098227;27;19924;-73
2022/12/11 05:03:33;;;;;;;;;;;0.00;99.90;;;;;;5105259;27;20425;-74
2022/12/11 05:05:59;;;;;;;;;;;0.00;99.90;;;;;;5104392;27;19928;-75
2022/12/11 05:08:24;;;;;;;;;;;0.00;99.90;;;;;;5085852;27;19960;-74
2022/12/11 05:10:54;;;;;;;;;;;1.50;99.90;;;;;;5111501;27;20371;-75
2022/12/11 05:13:20;;;;;;;;;;;-0.10;99.90;;;;;;5107963;28;19928;-75
2022/12/11 05:15:45;;;;;;;;;;;-0.50;99.90;;;;;;5108356;27;19924;-75
2022/12/11 05:18:11;;;;;;;;;;;-0.10;99.90;;;;;;5123457;27;19928;-74
2022/12/11 05:20:37;;;;;;;;;;;0.00;99.90;;;;;;5116056;27;19924;-76
2022/12/11 05:23:02;;;;;;;;;;;-0.10;99.90;;;;;;5101645;27;19924;-77
2022/12/11 05:25:28;;;;;;;;;;;1.40;99.90;;;;;;5132090;27;20014;-75
2022/12/11 05:27:56;;;;;;;;;;;0.00;99.90;;;;;;5119543;27;20318;-75
2022/12/11 05:30:22;;;;;;;;;;;0.00;99.90;;;;;;5086162;28;19924;-73
2022/12/11 05:32:48;;;;;;;;;;;0.00;99.90;;;;;;5091547;28;20054;-73
2022/12/11 05:35:15;;;;;;;;;;;0.00;99.90;;;;;;5117915;27;19924;-73
2022/12/11 05:37:40;;;;;;;;;;;0.00;99.90;;;;;;5112716;27;19934;-75
2022/12/11 05:40:06;;;;;;;;;;;-0.60;99.90;;;;;;5119022;27;19923;-73
2022/12/11 05:42:32;;;;;;;;;;;0.00;99.90;;;;;;5105021;28;20394;-75
2022/12/11 05:44:58;;;;;;;;;;;-0.30;99.90;;;;;;5104675;27;19939;-72
2022/12/11 05:47:24;;;;;;;;;;;-0.60;99.90;;;;;;5103698;27;19920;-74
2022/12/11 05:49:50;;;;;;;;;;;0.00;99.90;;;;;;5112009;27;19928;-73
2022/12/11 05:52:16;;;;;;;;;;;2.30;99.90;;;;;;5091425;28;20437;-74
2022/12/11 05:54:41;;;;;;;;;;;0.10;99.90;;;;;;5084145;28;19977;-74
2022/12/11 05:57:07;;;;;;;;;;;0.80;99.90;;;;;;5099062;27;19932;-73
2022/12/11 05:59:32;;;;;;;;;;;0.10;99.90;;;;;;5099384;27;19976;-75
2022/12/11 06:01:58;;;;;;;;;;;0.00;99.90;;;;;;5101162;27;19971;-73
2022/12/11 06:04:24;;;;;;;;;;;0.10;99.90;;;;;;5080539;28;20280;-73
2022/12/11 06:06:52;;;;;;;;;;;0.00;99.90;;;;;;5099612;27;19943;-74
2022/12/11 06:09:18;;;;;;;;;;;-0.70;99.90;;;;;;5079293;28;19924;-74
2022/12/11 06:11:43;;;;;;;;;;;0.10;99.90;;;;;;5083745;27;20346;-74
2022/12/11 06:14:13;;;;;;;;;;;1.20;99.90;;;;;;5099878;28;20232;-75
2022/12/11 06:16:38;;;;;;;;;;;0.10;99.90;;;;;;5086001;27;19931;-75
2022/12/11 06:19:04;;;;;;;;;;;0.10;99.90;;;;;;5097824;28;20421;-74
2022/12/11 06:21:31;;;;;;;;;;;-0.40;99.90;;;;;;5113767;27;19972;-74
2022/12/11 06:23:58;;;;;;;;;;;0.30;99.90;;;;;;5101019;27;19931;-74
2022/12/11 06:26:23;;;;;;;;;;;0.00;99.90;;;;;;5101065;28;19939;-74
2022/12/11 06:28:49;;;;;;;;;;;0.10;99.90;;;;;;5103187;27;19931;-74
2022/12/11 06:31:16;;;;;;;;;;;2.00;99.90;;;;;;5123116;27;19924;-74
2022/12/11 06:33:42;;;;;;;;;;;0.10;99.90;;;;;;5098604;27;20013;-74
2022/12/11 06:36:09;;;;;;;;;;;0.10;99.90;;;;;;5106860;27;19977;-74
2022/12/11 06:38:34;;;;;;;;;;;0.10;99.90;;;;;;5080443;27;19931;-74
2022/12/11 06:41:01;;;;;;;;;;;-0.60;99.90;;;;;;5097396;27;19928;-74
2022/12/11 06:43:27;;;;;;;;;;;1.90;99.90;;;;;;5101060;27;20381;-74
2022/12/11 06:45:52;;;;;;;;;;;0.10;99.90;;;;;;5090085;27;19927;-74
2022/12/11 06:48:19;;;;;;;;;;;0.10;99.90;;;;;;5076360;28;19920;-74
2022/12/11 06:50:44;;;;;;;;;;;2.20;99.90;;;;;;5109139;27;20041;-74
2022/12/11 06:53:11;;;;;;;;;;;-0.50;99.90;;;;;;5105560;27;20364;-74
2022/12/11 06:55:36;;;;;;;;;;;-0.30;99.90;;;;;;5095719;27;19931;-74
2022/12/11 06:58:03;;;;;;;;;;;0.00;99.90;;;;;;5083468;28;19923;-74
2022/12/11 07:00:28;;;;;;;;;;;0.10;99.90;;;;;;5087942;28;19919;-74
2022/12/11 07:02:54;;;;;;;;;;;0.10;99.90;;;;;;5080324;28;21512;-74
2022/12/11 07:05:20;;;;;;;;;;;0.10;99.90;;;;;;5098048;27;19928;-74
2022/12/11 07:07:45;;;;;;;;;;;0.20;99.90;;;;;;5092946;27;19931;-74
2022/12/11 07:10:11;;;;;;;;;;;0.10;99.90;;;;;;5098298;27;19927;-74
2022/12/11 07:12:37;;;;;;;;;;;2.10;99.90;;;;;;5105814;27;20019;-74
2022/12/11 07:15:03;;;;;;;;;;;0.10;99.90;;;;;;5102676;27;19924;-74
2022/12/11 07:17:29;;;;;;;;;;;0.20;99.90;;;;;;5108441;28;19931;-74
2022/12/11 07:19:55;;;;;;;;;;;0.20;99.90;;;;;;5113045;27;19927;-74
2022/12/11 07:22:20;;;;;;;;;;;0.60;99.90;;;;;;5081656;28;20557;-74
2022/12/11 07:24:46;;;;;;;;;;;0.40;99.90;;;;;;5077668;27;19977;-74
2022/12/11 07:27:11;;;;;;;;;;;2.30;99.90;;;;;;5111815;27;19924;-75
2022/12/11 07:29:37;;;;;;;;;;;0.20;99.90;;;;;;5109597;28;20176;-75
2022/12/11 07:32:03;;;;;;;;;;;0.10;99.90;;;;;;5102977;28;19924;-75
2022/12/11 07:34:28;;;;;;;;;;;0.20;99.90;;;;;;5100922;27;19923;-73
2022/12/11 07:36:54;;;;;;;;;;;0.20;99.90;;;;;;5095536;27;19931;-73
2022/12/11 07:39:19;;;;;;;;;;;1.70;99.90;;;;;;5128938;27;20412;-76
2022/12/11 07:41:45;;;;;;;;;;;-0.30;99.90;;;;;;5103003;27;19932;-77
2022/12/11 07:44:11;;;;;;;;;;;0.20;99.90;;;;;;5108750;27;19930;-76
2022/12/11 07:46:39;;;;;;;;;;;0.20;99.90;;;;;;5078484;28;20424;-75
2022/12/11 07:49:05;;;;;;;;;;;0.20;99.90;;;;;;5104944;27;20032;-76
2022/12/11 07:51:31;;;;;;;;;;;0.20;99.90;;;;;;5096728;27;19931;-77
2022/12/11 07:53:59;;;;;;;;;;;0.20;99.90;;;;;;5098230;27;19931;-76
2022/12/11 07:56:26;;;;;;;;;;;0.20;99.90;;;;;;5113041;27;19923;-76
2022/12/11 07:58:51;;;;;;;;;;;0.20;99.90;;;;;;5103291;27;19931;-76
2022/12/11 08:01:22;;;;;;;;;;;0.20;99.90;;;;;;5096631;28;20298;-72
2022/12/11 08:03:49;;;;;;;;;;;0.10;99.90;;;;;;5085399;27;19928;-73
2022/12/11 08:06:15;;;;;;;;;;;0.10;99.90;;;;;;5094720;27;19927;-76
2022/12/11 08:08:41;;;;;;;;;;;0.20;99.90;;;;;;5115685;27;19968;-74
2022/12/11 08:11:08;;;;;;;;;;;1.10;99.90;;;;;;5114232;27;19931;-75
2022/12/11 08:13:34;;;;;;;;;;;0.20;99.90;;;;;;5113072;27;19920;-75
2022/12/11 08:16:04;;;;;;;;;;;0.10;99.90;;;;;;5119579;27;20350;-73
2022/12/11 08:18:30;;;;;;;;;;;0.30;99.90;;;;;;5092702;28;19928;-74
2022/12/11 08:20:55;;;;;;;;;;;0.20;99.90;;;;;;5116384;27;19977;-73
2022/12/11 08:23:21;;;;;;;;;;;2.30;99.90;;;;;;5104022;28;19931;-74
2022/12/11 08:25:47;;;;;;;;;;;0.20;99.90;;;;;;5113241;27;19919;-74
2022/12/11 08:28:12;;;;;;;;;;;0.10;99.90;;;;;;5098878;28;19943;-74
2022/12/11 08:30:38;;;;;;;;;;;0.30;99.90;;;;;;5106876;27;19924;-74
2022/12/11 08:33:04;;;;;;;;;;;1.30;99.90;;;;;;5094324;28;20002;-74
2022/12/11 08:35:30;;;;;;;;;;;0.10;99.90;;;;;;5096029;28;19928;-75
2022/12/11 08:37:56;;;;;;;;;;;0.20;99.90;;;;;;5108806;28;19923;-74
2022/12/11 08:40:21;;;;;;;;;;;0.20;99.90;;;;;;5111084;28;19984;-74
2022/12/11 08:42:47;;;;;;;;;;;-0.50;99.90;;;;;;5113717;28;19927;-74
2022/12/11 08:45:15;;;;;;;;;;;1.50;99.90;;;;;;5095540;28;19924;-73
2022/12/11 08:47:41;;;;;;;;;;;0.20;99.90;;;;;;5110181;28;20298;-74
2022/12/11 08:50:08;;;;;;;;;;;0.30;99.90;;;;;;5099287;28;19927;-74
2022/12/11 08:52:34;;;;;;;;;;;0.30;99.90;;;;;;5110374;28;20295;-74
2022/12/11 08:54:59;;;;;;;;;;;1.90;99.90;;;;;;5105386;28;19978;-75
2022/12/11 08:57:26;;;;;;;;;;;2.50;99.90;;;;;;5085005;28;19960;-74
2022/12/11 08:59:52;;;;;;;;;;;0.20;99.90;;;;;;5084103;28;19924;-74
2022/12/11 09:02:17;;;;;;;;;;;0.30;99.90;;;;;;5093198;28;19924;-75
2022/12/11 09:04:43;;;;;;;;;;;0.20;99.90;;;;;;5114233;28;19980;-74
2022/12/11 09:07:09;;;;;;;;;;;2.00;99.90;;;;;;5106461;28;19924;-73
2022/12/11 09:09:34;;;;;;;;;;;0.30;99.90;;;;;;5093644;28;19923;-74
2022/12/11 09:12:01;;;;;;;;;;;0.20;99.90;;;;;;5122105;28;19931;-75
2022/12/11 09:14:27;;;;;;;;;;;0.20;99.90;;;;;;5123230;28;20018;-74
2022/12/11 09:16:52;;;;;;;;;;;0.20;99.90;;;;;;5113750;28;20023;-75
2022/12/11 09:19:18;;;;;;;;;;;0.30;99.90;;;;;;5084030;28;19924;-75
2022/12/11 09:21:44;;;;;;;;;;;0.10;99.90;;;;;;5102390;28;20456;-75
2022/12/11 09:24:10;;;;;;;;;;;0.20;99.90;;;;;;5106374;27;19935;-74
2022/12/11 09:26:36;;;;;;;;;;;0.70;99.90;;;;;;5098973;28;19968;-74
2022/12/11 09:29:03;;;;;;;;;;;0.20;99.90;;;;;;5109222;27;19919;-75
2022/12/11 09:31:30;;;;;;;;;;;1.90;99.90;;;;;;5102377;27;19963;-79
2022/12/11 09:33:56;;;;;;;;;;;-0.70;99.90;;;;;;5111111;27;20015;-77
2022/12/11 09:36:22;;;;;;;;;;;0.20;99.90;;;;;;5114523;27;19975;-80
2022/12/11 09:38:48;;;;;;;;;;;2.40;99.90;;;;;;5112150;27;20085;-78
2022/12/11 09:41:20;;;;;;;;;;;0.30;99.90;;;;;;5113791;27;20283;-77
2022/12/11 09:43:48;;;;;;;;;;;0.30;99.90;;;;;;4398236;27;10000702;-75
2022/12/11 09:46:15;;;;;;;;;;;0.30;99.90;;;;;;5096123;27;20031;-75
2022/12/11 09:48:42;;;;;;;;;;;0.30;99.90;;;;;;5102574;27;20022;-78
2022/12/11 09:51:15;;;;;;;;;;;0.30;99.90;;;;;;5096052;27;19924;-77
2022/12/11 09:53:41;;;;;;;;;;;0.30;99.90;;;;;;5117760;27;19927;-77
2022/12/11 09:56:21;;;;;;;;;;;0.30;99.90;;;;;;5125270;27;19935;-77
2022/12/11 09:58:54;;;;;;;;;;;0.30;99.90;;;;;;5097293;27;19967;-78
2022/12/11 10:01:25;;;;;;;;;;;0.30;99.90;;;;;;5113534;27;19927;-76
2022/12/11 10:04:09;;;;;;;;;;;0.30;99.90;;;;;;5093659;27;19935;-76
2022/12/11 10:06:51;;;;;;;;;;;0.40;99.90;;;;;;5083361;28;19932;-77
2022/12/11 10:09:32;;;;;;;;;;;0.40;99.90;;;;;;5103789;27;20010;-75
2022/12/11 10:12:00;;;;;;;;;;;0.40;99.90;;;;;;5097417;27;19928;-74
2022/12/11 10:14:42;;;;;;;;;;;0.40;99.90;;;;;;5105015;27;19925;-76
2022/12/11 10:17:11;;;;;;;;;;;0.40;99.90;;;;;;5100163;28;19993;-77
2022/12/11 10:19:38;;;;;;;;;;;1.80;99.90;;;;;;5104321;27;19923;-78
2022/12/11 10:22:07;;;;;;;;;;;0.40;99.90;;;;;;5105715;27;19963;-79
2022/12/11 10:24:35;;;;;;;;;;;1.60;99.90;;;;;;5086331;28;20294;-76
2022/12/11 10:27:11;;;;;;;;;;;0.40;99.90;;;;;;5101218;27;20419;-79
2022/12/11 10:29:37;;;;;;;;;;;0.40;99.90;;;;;;5103592;27;19923;-81
2022/12/11 10:32:10;;;;;;;;;;;0.40;99.90;;;;;;5108068;27;19958;-76
2022/12/11 10:34:38;;;;;;;;;;;0.40;99.90;;;;;;5105402;27;20387;-78
2022/12/11 10:37:03;;;;;;;;;;;0.40;99.90;;;;;;5110295;27;19959;-80
2022/12/11 10:39:29;;;;;;;;;;;0.30;99.90;;;;;;5101571;28;19924;-77
2022/12/11 10:41:57;;;;;;;;;;;0.40;99.90;;;;;;5105358;27;19928;-77
2022/12/11 10:44:24;;;;;;;;;;;1.80;99.90;;;;;;5103492;28;19976;-80
2022/12/11 10:47:09;;;;;;;;;;;1.70;99.90;;;;;;5107657;27;19943;-78
2022/12/11 10:49:35;;;;;;;;;;;0.40;99.90;;;;;;5082827;28;19931;-81
2022/12/11 10:52:01;;;;;;;;;;;1.20;99.90;;;;;;5089517;27;19953;-77
2022/12/11 10:54:31;;;;;;;;;;;2.70;99.90;;;;;;5092597;28;20342;-82
2022/12/11 10:56:57;;;;;;;;;;;0.50;99.90;;;;;;5109439;27;19932;-77
2022/12/11 10:59:42;;;;;;;;;;;0.50;99.90;;;;;;5106461;27;20011;-77
2022/12/11 11:02:16;;;;;;;;;;;0.50;99.90;;;;;;5105845;27;19927;-75
2022/12/11 11:04:43;;;;;;;;;;;-1.10;99.90;;;;;;5097095;28;19924;-77
2022/12/11 11:07:14;;;;;;;;;;;0.40;99.90;;;;;;5088366;27;19927;-82
2022/12/11 11:09:40;;;;;;;;;;;0.50;99.90;;;;;;5101263;27;19924;-78
2022/12/11 11:12:25;;;;;;;;;;;0.50;99.90;;;;;;5074490;28;19931;-81
2022/12/11 11:15:03;;;;;;;;;;;0.50;99.90;;;;;;5101398;27;21587;-80
2022/12/11 11:17:30;;;;;;;;;;;0.50;99.90;;;;;;5095733;28;19938;-82
2022/12/11 11:19:56;;;;;;;;;;;0.50;99.90;;;;;;5082646;27;19939;-77
2022/12/11 11:22:22;;;;;;;;;;;0.50;99.90;;;;;;5112235;27;19928;-77
2022/12/11 11:24:52;;;;;;;;;;;0.40;99.90;;;;;;5095478;27;19985;-76
2022/12/11 11:27:38;;;;;;;;;;;0.50;99.90;;;;;;5093283;27;19965;-75
2022/12/11 11:30:07;;;;;;;;;;;0.60;99.90;;;;;;5078491;27;19928;-78
2022/12/11 11:32:35;;;;;;;;;;;0.60;99.90;;;;;;5075561;28;19924;-73
2022/12/11 11:35:04;;;;;;;;;;;0.90;99.90;;;;;;5103742;27;20289;-74
2022/12/11 11:37:31;;;;;;;;;;;0.60;99.90;;;;;;5080133;28;20446;-77
2022/12/11 11:40:02;;;;;;;;;;;0.50;99.90;;;;;;5081875;27;19931;-75
2022/12/11 11:42:38;;;;;;;;;;;0.60;99.90;;;;;;5079552;28;20193;-80
2022/12/11 11:45:08;;;;;;;;;;;0.60;99.90;;;;;;5100805;27;20421;-74
2022/12/11 11:47:37;;;;;;;;;;;0.60;99.90;;;;;;5101850;28;19924;-76
2022/12/11 11:50:07;;;;;;;;;;;0.50;99.90;;;;;;5120453;27;19932;-77
2022/12/11 11:52:40;;;;;;;;;;;0.50;99.90;;;;;;5075847;28;19969;-74
2022/12/11 11:55:18;;;;;;;;;;;0.60;99.90;;;;;;5105210;27;19923;-74
2022/12/11 11:57:44;;;;;;;;;;;0.60;99.90;;;;;;5098382;28;19939;-77
2022/12/11 12:00:16;;;;;;;;;;;0.60;99.90;;;;;;5083268;27;19928;-77
2022/12/11 12:02:42;;;;;;;;;;;0.60;99.90;;;;;;5122248;27;20378;-79
2022/12/11 12:05:11;;;;;;;;;;;0.70;99.90;;;;;;5103610;27;19953;-79
2022/12/11 12:07:42;;;;;;;;;;;0.60;99.90;;;;;;5105896;27;19928;-81
2022/12/11 12:10:19;;;;;;;;;;;0.60;99.90;;;;;;5093282;27;19963;-74
2022/12/11 12:12:56;;;;;;;;;;;0.60;99.90;;;;;;5111822;27;19978;-77
2022/12/11 12:15:28;;;;;;;;;;;0.50;99.90;;;;;;5096519;28;19931;-74
2022/12/11 12:17:56;;;;;;;;;;;0.60;99.90;;;;;;5098476;27;19924;-74
2022/12/11 12:20:40;;;;;;;;;;;0.60;99.90;;;;;;5116275;27;20298;-73
2022/12/11 12:23:06;;;;;;;;;;;0.60;99.90;;;;;;5092540;28;19971;-75
2022/12/11 12:25:41;;;;;;;;;;;0.50;99.90;;;;;;5114377;27;20352;-76
2022/12/11 12:28:21;;;;;;;;;;;0.60;99.90;;;;;;5104001;28;19985;-75
2022/12/11 12:30:56;;;;;;;;;;;0.60;99.90;;;;;;5105387;27;19928;-79
2022/12/11 12:33:40;;;;;;;;;;;0.80;99.90;;;;;;5118669;28;19931;-77
2022/12/11 12:36:05;;;;;;;;;;;0.60;99.90;;;;;;5113554;28;19930;-78
2022/12/11 12:38:39;;;;;;;;;;;0.60;99.90;;;;;;5126201;28;19923;-74
2022/12/11 12:41:43;;;;;;;;;;;0.70;99.90;;;;;;5106504;28;19928;-74
2022/12/11 12:44:15;;;;;;;;;;;0.60;99.90;;;;;;5021795;28;19948;-74
2022/12/11 12:46:56;;;;;;;;;;;0.70;99.90;;;;;;4643150;28;9999960;-74
2022/12/11 12:49:31;;;;;;;;;;;0.70;99.90;;;;;;5062232;28;20265;-77
2022/12/11 12:51:57;;;;;;;;;;;0.70;99.90;;;;;;5099694;27;19928;-75
2022/12/11 12:54:25;;;;;;;;;;;2.50;99.90;;;;;;5087407;27;19920;-74
2022/12/11 12:56:50;;;;;;;;;;;0.80;99.90;;;;;;5098351;28;20014;-74
2022/12/11 12:59:21;;;;;;;;;;;1.00;99.90;;;;;;5092161;28;20002;-76
2022/12/11 13:01:51;;;;;;;;;;;0.70;99.90;;;;;;5108159;27;19924;-75
2022/12/11 13:04:43;;;;;;;;;;;0.70;99.90;;;;;;5086112;28;19928;-74
2022/12/11 13:07:17;;;;;;;;;;;0.70;99.90;;;;;;5086759;27;20402;-75
2022/12/11 13:09:42;;;;;;;;;;;0.70;99.90;;;;;;5093384;27;19969;-78
2022/12/11 13:12:12;;;;;;;;;;;2.70;99.90;;;;;;5117265;27;19936;-76
2022/12/11 13:14:39;;;;;;;;;;;0.70;99.90;;;;;;5117154;27;19935;-76
2022/12/11 13:17:20;;;;;;;;;;;0.70;99.90;;;;;;5125824;27;19928;-75
2022/12/11 13:19:47;;;;;;;;;;;0.80;99.90;;;;;;5106595;28;19970;-76
2022/12/11 13:22:13;;;;;;;;;;;0.90;99.90;;;;;;5115057;27;20373;-76
2022/12/11 13:24:49;;;;;;;;;;;0.80;99.90;;;;;;5095144;28;19979;-77
2022/12/11 13:27:25;;;;;;;;;;;0.80;99.90;;;;;;5084877;27;19945;-76
2022/12/11 13:29:50;;;;;;;;;;;0.80;99.90;;;;;;5088407;28;20489;-79
2022/12/11 13:32:16;;;;;;;;;;;0.60;99.90;;;;;;5106509;27;19923;-80
2022/12/11 13:34:43;;;;;;;;;;;0.70;99.90;;;;;;5102725;27;20054;-77
2022/12/11 13:37:27;;;;;;;;;;;0.80;99.90;;;;;;5105552;27;20286;-81
2022/12/11 13:39:53;;;;;;;;;;;0.90;99.90;;;;;;5086512;27;19965;-80
2022/12/11 13:42:23;;;;;;;;;;;0.80;99.90;;;;;;5110433;27;20336;-79
2022/12/11 13:44:50;;;;;;;;;;;0.80;99.90;;;;;;5079718;28;19931;-79
2022/12/11 13:47:17;;;;;;;;;;;0.80;99.90;;;;;;5109559;27;19926;-81
2022/12/11 13:49:43;;;;;;;;;;;0.80;99.90;;;;;;5113696;27;19930;-80
2022/12/11 13:52:19;;;;;;;;;;;0.70;99.90;;;;;;5098565;27;19928;-79
2022/12/11 13:54:49;;;;;;;;;;;0.80;99.90;;;;;;5107754;27;19938;-78
2022/12/11 13:57:20;;;;;;;;;;;0.80;99.90;;;;;;5104558;27;20371;-79
2022/12/11 13:59:51;;;;;;;;;;;0.00;99.90;;;;;;5111137;27;20388;-79
2022/12/11 14:02:32;;;;;;;;;;;0.80;99.90;;;;;;5108988;27;19923;-78
2022/12/11 14:05:02;;;;;;;;;;;0.80;99.90;;;;;;5104778;27;19946;-78
2022/12/11 14:07:32;;;;;;;;;;;0.80;99.90;;;;;;5087771;27;19928;-79
2022/12/11 14:10:04;;;;;;;;;;;0.70;99.90;;;;;;5094844;28;19924;-78
2022/12/11 14:12:30;;;;;;;;;;;0.70;99.90;;;;;;5100717;27;20383;-78
2022/12/11 14:14:58;;;;;;;;;;;0.70;99.90;;;;;;5083814;27;20260;-78
2022/12/11 14:17:25;;;;;;;;;;;0.80;99.90;;;;;;5100651;27;20002;-78
2022/12/11 14:19:51;;;;;;;;;;;0.70;99.90;;;;;;5107287;28;19980;-78
2022/12/11 14:22:18;;;;;;;;;;;0.70;99.90;;;;;;5076260;27;19923;-78
2022/12/11 14:24:47;;;;;;;;;;;0.20;99.90;;;;;;5077779;28;19932;-79
2022/12/11 14:27:14;;;;;;;;;;;0.70;99.90;;;;;;5082299;27;19927;-79
2022/12/11 14:29:40;;;;;;;;;;;0.70;99.90;;;;;;5097969;27;20104;-80
2022/12/11 14:32:06;;;;;;;;;;;0.60;99.90;;;;;;5103960;27;20321;-79
2022/12/11 14:34:43;;;;;;;;;;;0.70;99.90;;;;;;5080779;28;20419;-78
2022/12/11 14:37:09;;;;;;;;;;;0.70;99.90;;;;;;5091928;27;19928;-81
2022/12/11 14:39:44;;;;;;;;;;;0.60;99.90;;;;;;5071608;27;10000191;-78
2022/12/11 14:42:12;;;;;;;;;;;1.50;99.90;;;;;;5097211;27;20011;-78